sensor_id;sensor_type;location;lat;lon;timestamp;temperature;humidity
8214;DHT22;4148;47.974;7.824;2023-06-22T00:00:32;20.50;99.90
8214;DHT22;4148;47.974;7.824;2023-06-22T00:03:00;20.40;99.90
8214;DHT22;4148;47.974;7.824;2023-06-22T00:05:29;20.50;99.90
8214;DHT22;4148;47.974;7.824;2023-06-22T00:07:57;20.40;99.90
8214;DHT22;4148;47.974;7.824;2023-06-22T00:10:25;20.50;99.90
8214;DHT22;4148;47.974;7.824;2023-06-22T00:12:53;20.40;99.90
8214;DHT22;4148;47.974;7.824;2023-06-22T00:15:21;20.40;99.90
8214;DHT22;4148;47.974;7.824;2023-06-22T00:17:49;20.40;99.90
8214;DHT22;4148;47.974;7.824;2023-06-22T00:20:17;20.40;99.90
8214;DHT22;4148;47.974;7.824;2023-06-22T00:22:46;20.40;99.90
8214;DHT22;4148;47.974;7.824;2023-06-22T00:25:14;20.50;99.90
8214;DHT22;4148;47.974;7.824;2023-06-22T00:27:42;20.50;99.90
8214;DHT22;4148;47.974;7.824;2023-06-22T00:30:11;20.40;99.90
8214;DHT22;4148;47.974;7.824;2023-06-22T00:32:39;20.40;99.90
8214;DHT22;4148;47.974;7.824;2023-06-22T00:35:07;20.30;99.90
8214;DHT22;4148;47.974;7.824;2023-06-22T00:37:36;20.30;99.90
8214;DHT22;4148;47.974;7.824;2023-06-22T00:40:07;20.30;99.90
8214;DHT22;4148;47.974;7.824;2023-06-22T00:42:38;20.30;99.90
8214;DHT22;4148;47.974;7.824;2023-06-22T00:45:07;20.30;99.90
8214;DHT22;4148;47.974;7.824;2023-06-22T00:47:36;20.20;99.90
8214;DHT22;4148;47.974;7.824;2023-06-22T00:50:07;20.10;99.90
8214;DHT22;4148;47.974;7.824;2023-06-22T00:52:36;20.10;99.90
8214;DHT22;4148;47.974;7.824;2023-06-22T00:55:11;20.10;99.90
8214;DHT22;4148;47.974;7.824;2023-06-22T00:57:39;20.10;99.90
8214;DHT22;4148;47.974;7.824;2023-06-22T01:00:09;20.10;99.90
8214;DHT22;4148;47.974;7.824;2023-06-22T01:02:38;20.10;99.90
8214;DHT22;4148;47.974;7.824;2023-06-22T01:05:07;20.00;99.90
8214;DHT22;4148;47.974;7.824;2023-06-22T01:07:36;20.00;99.90
8214;DHT22;4148;47.974;7.824;2023-06-22T01:10:08;20.00;99.90
8214;DHT22;4148;47.974;7.824;2023-06-22T01:12:44;20.00;99.90
8214;DHT22;4148;47.974;7.824;2023-06-22T01:15:18;19.90;99.90
8214;DHT22;4148;47.974;7.824;2023-06-22T01:17:48;19.90;99.90
8214;DHT22;4148;47.974;7.824;2023-06-22T01:20:17;19.90;99.90
8214;DHT22;4148;47.974;7.824;2023-06-22T01:22:55;19.90;99.90
8214;DHT22;4148;47.974;7.824;2023-06-22T01:25:33;20.00;99.90
8214;DHT22;4148;47.974;7.824;2023-06-22T01:28:12;20.00;99.90
8214;DHT22;4148;47.974;7.824;2023-06-22T01:30:48;20.00;99.90
8214;DHT22;4148;47.974;7.824;2023-06-22T01:33:17;20.00;99.90
8214;DHT22;4148;47.974;7.824;2023-06-22T01:35:45;19.90;99.90
8214;DHT22;4148;47.974;7.824;2023-06-22T01:38:13;19.70;99.90
8214;DHT22;4148;47.974;7.824;2023-06-22T01:40:41;19.70;99.90
8214;DHT22;4148;47.974;7.824;2023-06-22T01:43:09;19.70;99.90
8214;DHT22;4148;47.974;7.824;2023-06-22T01:45:38;19.70;99.90
8214;DHT22;4148;47.974;7.824;2023-06-22T01:48:07;19.70;99.90
8214;DHT22;4148;47.974;7.824;2023-06-22T01:50:35;19.70;99.90
8214;DHT22;4148;47.974;7.824;2023-06-22T01:53:04;19.70;99.90
8214;DHT22;4148;47.974;7.824;2023-06-22T01:55:33;19.60;99.90
8214;DHT22;4148;47.974;7.824;2023-06-22T01:58:01;19.60;99.90
8214;DHT22;4148;47.974;7.824;2023-06-22T02:00:31;19.60;99.90
8214;DHT22;4148;47.974;7.824;2023-06-22T02:03:02;19.50;99.90
8214;DHT22;4148;47.974;7.824;2023-06-22T02:05:38;19.60;99.90
8214;DHT22;4148;47.974;7.824;2023-06-22T02:08:10;19.60;99.90
8214;DHT22;4148;47.974;7.824;2023-06-22T02:10:40;19.60;99.90
8214;DHT22;4148;47.974;7.824;2023-06-22T02:13:09;19.50;99.90
8214;DHT22;4148;47.974;7.824;2023-06-22T02:15:37;19.50;99.90
8214;DHT22;4148;47.974;7.824;2023-06-22T02:18:05;19.40;99.90
8214;DHT22;4148;47.974;7.824;2023-06-22T02:20:37;19.40;99.90
8214;DHT22;4148;47.974;7.824;2023-06-22T02:23:06;19.40;99.90
8214;DHT22;4148;47.974;7.824;2023-06-22T02:25:35;19.30;99.90
8214;DHT22;4148;47.974;7.824;2023-06-22T02:28:03;19.30;99.90
8214;DHT22;4148;47.974;7.824;2023-06-22T02:30:32;19.20;99.90
8214;DHT22;4148;47.974;7.824;2023-06-22T02:33:00;19.30;99.90
8214;DHT22;4148;47.974;7.824;2023-06-22T02:35:28;19.10;99.90
8214;DHT22;4148;47.974;7.824;2023-06-22T02:37:59;19.10;99.90
8214;DHT22;4148;47.974;7.824;2023-06-22T02:40:28;19.10;99.90
8214;DHT22;4148;47.974;7.824;2023-06-22T02:42:58;19.00;99.90
8214;DHT22;4148;47.974;7.824;2023-06-22T02:45:29;19.00;99.90
8214;DHT22;4148;47.974;7.824;2023-06-22T02:47:57;19.10;99.90
8214;DHT22;4148;47.974;7.824;2023-06-22T02:50:25;19.00;99.90
8214;DHT22;4148;47.974;7.824;2023-06-22T02:52:53;18.90;99.90
8214;DHT22;4148;47.974;7.824;2023-06-22T02:55:23;19.00;99.90
8214;DHT22;4148;47.974;7.824;2023-06-22T02:57:51;18.90;99.90
8214;DHT22;4148;47.974;7.824;2023-06-22T03:00:19;18.80;99.90
8214;DHT22;4148;47.974;7.824;2023-06-22T03:02:49;18.80;99.90
8214;DHT22;4148;47.974;7.824;2023-06-22T03:05:17;18.80;99.90
8214;DHT22;4148;47.974;7.824;2023-06-22T03:07:45;18.80;99.90
8214;DHT22;4148;47.974;7.824;2023-06-22T03:10:14;18.80;99.90
8214;DHT22;4148;47.974;7.824;2023-06-22T03:12:43;18.70;99.90
8214;DHT22;4148;47.974;7.824;2023-06-22T03:15:12;18.70;99.90
8214;DHT22;4148;47.974;7.824;2023-06-22T03:17:40;18.70;99.90
8214;DHT22;4148;47.974;7.824;2023-06-22T03:20:10;18.70;99.90
8214;DHT22;4148;47.974;7.824;2023-06-22T03:22:39;18.50;99.90
8214;DHT22;4148;47.974;7.824;2023-06-22T03:25:08;18.50;99.90
8214;DHT22;4148;47.974;7.824;2023-06-22T03:27:39;18.50;99.90
8214;DHT22;4148;47.974;7.824;2023-06-22T03:30:10;18.60;99.90
8214;DHT22;4148;47.974;7.824;2023-06-22T03:32:38;18.60;99.90
8214;DHT22;4148;47.974;7.824;2023-06-22T03:35:07;18.70;99.90
8214;DHT22;4148;47.974;7.824;2023-06-22T03:37:35;18.80;99.90
8214;DHT22;4148;47.974;7.824;2023-06-22T03:40:03;18.80;99.90
8214;DHT22;4148;47.974;7.824;2023-06-22T03:42:33;18.90;99.90
8214;DHT22;4148;47.974;7.824;2023-06-22T03:45:02;18.80;99.90
8214;DHT22;4148;47.974;7.824;2023-06-22T03:47:32;18.60;99.90
8214;DHT22;4148;47.974;7.824;2023-06-22T03:50:00;18.70;99.90
8214;DHT22;4148;47.974;7.824;2023-06-22T03:52:30;18.60;99.90
8214;DHT22;4148;47.974;7.824;2023-06-22T03:54:58;18.70;99.90
8214;DHT22;4148;47.974;7.824;2023-06-22T03:57:26;18.70;99.90
8214;DHT22;4148;47.974;7.824;2023-06-22T03:59:56;18.70;99.90
8214;DHT22;4148;47.974;7.824;2023-06-22T04:02:24;18.70;99.90
8214;DHT22;4148;47.974;7.824;2023-06-22T04:04:53;18.70;99.90
8214;DHT22;4148;47.974;7.824;2023-06-22T04:07:21;18.70;99.90
8214;DHT22;4148;47.974;7.824;2023-06-22T04:09:49;18.70;99.90
8214;DHT22;4148;47.974;7.824;2023-06-22T04:12:17;18.80;99.90
8214;DHT22;4148;47.974;7.824;2023-06-22T04:14:45;18.70;99.90
8214;DHT22;4148;47.974;7.824;2023-06-22T04:17:13;18.60;99.90
8214;DHT22;4148;47.974;7.824;2023-06-22T04:19:41;18.60;99.90
8214;DHT22;4148;47.974;7.824;2023-06-22T04:22:10;18.50;99.90
8214;DHT22;4148;47.974;7.824;2023-06-22T04:24:38;18.60;99.90
8214;DHT22;4148;47.974;7.824;2023-06-22T04:27:06;18.50;99.90
8214;DHT22;4148;47.974;7.824;2023-06-22T04:29:34;18.50;99.90
8214;DHT22;4148;47.974;7.824;2023-06-22T04:32:03;18.50;99.90
8214;DHT22;4148;47.974;7.824;2023-06-22T04:34:32;18.60;99.90
8214;DHT22;4148;47.974;7.824;2023-06-22T04:36:59;18.70;99.90
8214;DHT22;4148;47.974;7.824;2023-06-22T04:39:29;18.80;99.90
8214;DHT22;4148;47.974;7.824;2023-06-22T04:41:58;18.90;99.90
8214;DHT22;4148;47.974;7.824;2023-06-22T04:44:27;19.00;99.90
8214;DHT22;4148;47.974;7.824;2023-06-22T04:46:56;19.00;99.90
8214;DHT22;4148;47.974;7.824;2023-06-22T04:49:28;19.10;99.90
8214;DHT22;4148;47.974;7.824;2023-06-22T04:52:00;19.10;99.90
8214;DHT22;4148;47.974;7.824;2023-06-22T04:54:29;19.10;99.90
8214;DHT22;4148;47.974;7.824;2023-06-22T04:56:59;19.30;99.90
8214;DHT22;4148;47.974;7.824;2023-06-22T04:59:28;19.40;99.90
8214;DHT22;4148;47.974;7.824;2023-06-22T05:01:57;19.40;99.90
8214;DHT22;4148;47.974;7.824;2023-06-22T05:04:26;19.60;99.90
8214;DHT22;4148;47.974;7.824;2023-06-22T05:06:54;19.60;99.90
8214;DHT22;4148;47.974;7.824;2023-06-22T05:09:22;19.60;99.90
8214;DHT22;4148;47.974;7.824;2023-06-22T05:11:52;19.60;99.90
8214;DHT22;4148;47.974;7.824;2023-06-22T05:14:20;19.70;99.90
8214;DHT22;4148;47.974;7.824;2023-06-22T05:16:48;19.80;99.90
8214;DHT22;4148;47.974;7.824;2023-06-22T05:19:18;19.90;99.90
8214;DHT22;4148;47.974;7.824;2023-06-22T05:21:46;19.90;99.90
8214;DHT22;4148;47.974;7.824;2023-06-22T05:24:14;20.00;99.90
8214;DHT22;4148;47.974;7.824;2023-06-22T05:26:42;20.10;99.90
8214;DHT22;4148;47.974;7.824;2023-06-22T05:29:11;20.10;99.90
8214;DHT22;4148;47.974;7.824;2023-06-22T05:31:39;20.20;99.90
8214;DHT22;4148;47.974;7.824;2023-06-22T05:34:08;20.20;99.90
8214;DHT22;4148;47.974;7.824;2023-06-22T05:36:36;20.30;99.90
8214;DHT22;4148;47.974;7.824;2023-06-22T05:39:11;20.30;99.90
8214;DHT22;4148;47.974;7.824;2023-06-22T05:41:40;20.40;99.90
8214;DHT22;4148;47.974;7.824;2023-06-22T05:44:08;20.40;99.90
8214;DHT22;4148;47.974;7.824;2023-06-22T05:46:40;20.50;99.90
8214;DHT22;4148;47.974;7.824;2023-06-22T05:49:11;20.60;99.90
8214;DHT22;4148;47.974;7.824;2023-06-22T05:51:39;20.60;99.90
8214;DHT22;4148;47.974;7.824;2023-06-22T05:54:07;20.60;99.90
8214;DHT22;4148;47.974;7.824;2023-06-22T05:56:35;20.70;99.90
8214;DHT22;4148;47.974;7.824;2023-06-22T05:59:04;20.80;99.90
8214;DHT22;4148;47.974;7.824;2023-06-22T06:01:32;20.90;99.90
8214;DHT22;4148;47.974;7.824;2023-06-22T06:04:04;21.00;99.90
8214;DHT22;4148;47.974;7.824;2023-06-22T06:06:35;21.10;99.90
8214;DHT22;4148;47.974;7.824;2023-06-22T06:09:04;21.20;99.90
8214;DHT22;4148;47.974;7.824;2023-06-22T06:11:33;21.30;99.90
8214;DHT22;4148;47.974;7.824;2023-06-22T06:14:01;21.40;99.90
8214;DHT22;4148;47.974;7.824;2023-06-22T06:16:28;21.50;99.90
8214;DHT22;4148;47.974;7.824;2023-06-22T06:18:56;21.60;99.90
8214;DHT22;4148;47.974;7.824;2023-06-22T06:21:26;21.70;99.90
8214;DHT22;4148;47.974;7.824;2023-06-22T06:23:57;21.80;99.90
8214;DHT22;4148;47.974;7.824;2023-06-22T06:26:25;22.00;99.90
8214;DHT22;4148;47.974;7.824;2023-06-22T06:28:56;22.00;99.90
8214;DHT22;4148;47.974;7.824;2023-06-22T06:31:24;22.10;99.90
8214;DHT22;4148;47.974;7.824;2023-06-22T06:33:55;22.30;99.90
8214;DHT22;4148;47.974;7.824;2023-06-22T06:36:23;22.50;99.90
8214;DHT22;4148;47.974;7.824;2023-06-22T06:38:52;22.70;99.90
8214;DHT22;4148;47.974;7.824;2023-06-22T06:41:20;23.00;99.90
8214;DHT22;4148;47.974;7.824;2023-06-22T06:43:48;23.00;99.90
8214;DHT22;4148;47.974;7.824;2023-06-22T06:46:16;23.20;99.90
8214;DHT22;4148;47.974;7.824;2023-06-22T06:48:45;23.10;99.90
8214;DHT22;4148;47.974;7.824;2023-06-22T06:51:13;23.10;99.90
8214;DHT22;4148;47.974;7.824;2023-06-22T06:53:41;23.00;99.90
8214;DHT22;4148;47.974;7.824;2023-06-22T06:56:10;22.90;99.90
8214;DHT22;4148;47.974;7.824;2023-06-22T06:58:40;23.00;99.90
8214;DHT22;4148;47.974;7.824;2023-06-22T07:01:09;23.10;99.90
8214;DHT22;4148;47.974;7.824;2023-06-22T07:03:37;23.10;99.90
8214;DHT22;4148;47.974;7.824;2023-06-22T07:06:04;23.10;99.90
8214;DHT22;4148;47.974;7.824;2023-06-22T07:08:32;23.10;99.90
8214;DHT22;4148;47.974;7.824;2023-06-22T07:11:01;22.90;99.90
8214;DHT22;4148;47.974;7.824;2023-06-22T07:13:30;22.80;99.90
8214;DHT22;4148;47.974;7.824;2023-06-22T07:15:58;23.10;99.90
8214;DHT22;4148;47.974;7.824;2023-06-22T07:18:26;23.40;99.90
8214;DHT22;4148;47.974;7.824;2023-06-22T07:20:54;23.50;99.90
8214;DHT22;4148;47.974;7.824;2023-06-22T07:23:22;23.50;99.90
8214;DHT22;4148;47.974;7.824;2023-06-22T07:25:50;23.60;99.90
8214;DHT22;4148;47.974;7.824;2023-06-22T07:28:17;23.60;99.90
8214;DHT22;4148;47.974;7.824;2023-06-22T07:30:47;23.70;99.90
8214;DHT22;4148;47.974;7.824;2023-06-22T07:33:15;23.60;99.90
8214;DHT22;4148;47.974;7.824;2023-06-22T07:35:44;23.70;99.90
8214;DHT22;4148;47.974;7.824;2023-06-22T07:38:13;23.60;99.90
8214;DHT22;4148;47.974;7.824;2023-06-22T07:40:41;23.50;99.90
8214;DHT22;4148;47.974;7.824;2023-06-22T07:43:09;23.50;99.90
8214;DHT22;4148;47.974;7.824;2023-06-22T07:45:37;23.30;99.90
8214;DHT22;4148;47.974;7.824;2023-06-22T07:48:08;23.10;99.90
8214;DHT22;4148;47.974;7.824;2023-06-22T07:50:36;23.10;99.90
8214;DHT22;4148;47.974;7.824;2023-06-22T07:53:04;23.10;99.90
8214;DHT22;4148;47.974;7.824;2023-06-22T07:55:32;23.30;99.90
8214;DHT22;4148;47.974;7.824;2023-06-22T07:57:59;23.60;99.90
8214;DHT22;4148;47.974;7.824;2023-06-22T08:00:27;23.90;99.90
8214;DHT22;4148;47.974;7.824;2023-06-22T08:02:55;24.20;99.90
8214;DHT22;4148;47.974;7.824;2023-06-22T08:05:25;24.30;99.90
8214;DHT22;4148;47.974;7.824;2023-06-22T08:07:54;24.50;99.90
8214;DHT22;4148;47.974;7.824;2023-06-22T08:10:22;24.60;99.90
8214;DHT22;4148;47.974;7.824;2023-06-22T08:12:50;24.80;99.90
8214;DHT22;4148;47.974;7.824;2023-06-22T08:15:19;24.80;99.90
8214;DHT22;4148;47.974;7.824;2023-06-22T08:17:48;24.90;99.90
8214;DHT22;4148;47.974;7.824;2023-06-22T08:20:16;25.00;99.90
8214;DHT22;4148;47.974;7.824;2023-06-22T08:22:45;24.90;99.90
8214;DHT22;4148;47.974;7.824;2023-06-22T08:25:13;25.00;99.90
8214;DHT22;4148;47.974;7.824;2023-06-22T08:27:45;25.10;99.90
8214;DHT22;4148;47.974;7.824;2023-06-22T08:30:13;25.10;99.90
8214;DHT22;4148;47.974;7.824;2023-06-22T08:32:41;25.30;99.90
8214;DHT22;4148;47.974;7.824;2023-06-22T08:35:09;25.80;99.90
8214;DHT22;4148;47.974;7.824;2023-06-22T08:37:37;26.10;99.90
8214;DHT22;4148;47.974;7.824;2023-06-22T08:40:09;26.40;99.90
8214;DHT22;4148;47.974;7.824;2023-06-22T08:42:39;26.80;99.90
8214;DHT22;4148;47.974;7.824;2023-06-22T08:45:09;27.20;99.90
8214;DHT22;4148;47.974;7.824;2023-06-22T08:47:37;27.30;99.90
8214;DHT22;4148;47.974;7.824;2023-06-22T08:50:06;27.20;99.90
8214;DHT22;4148;47.974;7.824;2023-06-22T08:52:35;27.20;99.90
8214;DHT22;4148;47.974;7.824;2023-06-22T08:55:03;27.20;99.90
8214;DHT22;4148;47.974;7.824;2023-06-22T08:57:33;27.30;99.90
8214;DHT22;4148;47.974;7.824;2023-06-22T09:00:01;27.40;99.90
8214;DHT22;4148;47.974;7.824;2023-06-22T09:02:31;27.50;99.90
8214;DHT22;4148;47.974;7.824;2023-06-22T09:05:02;27.40;99.90
8214;DHT22;4148;47.974;7.824;2023-06-22T09:07:31;27.20;99.90
8214;DHT22;4148;47.974;7.824;2023-06-22T09:10:01;27.10;99.90
8214;DHT22;4148;47.974;7.824;2023-06-22T09:12:32;27.30;99.90
8214;DHT22;4148;47.974;7.824;2023-06-22T09:15:01;27.40;99.90
8214;DHT22;4148;47.974;7.824;2023-06-22T09:17:30;27.50;99.90
8214;DHT22;4148;47.974;7.824;2023-06-22T09:19:57;27.70;99.90
8214;DHT22;4148;47.974;7.824;2023-06-22T09:22:25;28.20;99.90
8214;DHT22;4148;47.974;7.824;2023-06-22T09:24:55;28.60;99.90
8214;DHT22;4148;47.974;7.824;2023-06-22T09:27:23;29.10;99.90
8214;DHT22;4148;47.974;7.824;2023-06-22T09:29:52;29.50;99.90
8214;DHT22;4148;47.974;7.824;2023-06-22T09:32:20;29.80;99.90
8214;DHT22;4148;47.974;7.824;2023-06-22T09:34:48;29.80;99.90
8214;DHT22;4148;47.974;7.824;2023-06-22T09:37:16;30.10;99.90
8214;DHT22;4148;47.974;7.824;2023-06-22T09:39:44;30.10;99.90
8214;DHT22;4148;47.974;7.824;2023-06-22T09:42:11;30.10;99.90
8214;DHT22;4148;47.974;7.824;2023-06-22T09:44:40;30.10;99.90
8214;DHT22;4148;47.974;7.824;2023-06-22T09:47:09;30.00;99.90
8214;DHT22;4148;47.974;7.824;2023-06-22T09:49:37;30.30;99.90
8214;DHT22;4148;47.974;7.824;2023-06-22T09:52:14;30.30;99.90
8214;DHT22;4148;47.974;7.824;2023-06-22T09:54:42;30.20;99.90
8214;DHT22;4148;47.974;7.824;2023-06-22T09:57:10;30.40;99.90
8214;DHT22;4148;47.974;7.824;2023-06-22T09:59:38;30.60;99.90
8214;DHT22;4148;47.974;7.824;2023-06-22T10:02:07;30.60;99.90
8214;DHT22;4148;47.974;7.824;2023-06-22T10:04:36;30.70;99.90
8214;DHT22;4148;47.974;7.824;2023-06-22T10:07:05;30.80;99.90
8214;DHT22;4148;47.974;7.824;2023-06-22T10:09:33;30.80;99.90
8214;DHT22;4148;47.974;7.824;2023-06-22T10:12:01;30.80;99.90
8214;DHT22;4148;47.974;7.824;2023-06-22T10:14:28;30.80;99.90
8214;DHT22;4148;47.974;7.824;2023-06-22T10:16:56;30.80;99.90
8214;DHT22;4148;47.974;7.824;2023-06-22T10:19:25;30.90;99.90
8214;DHT22;4148;47.974;7.824;2023-06-22T10:21:55;31.30;99.90
8214;DHT22;4148;47.974;7.824;2023-06-22T10:24:22;31.50;99.90
8214;DHT22;4148;47.974;7.824;2023-06-22T10:26:50;31.70;99.90
8214;DHT22;4148;47.974;7.824;2023-06-22T10:29:20;31.60;99.90
8214;DHT22;4148;47.974;7.824;2023-06-22T10:31:48;31.50;99.90
8214;DHT22;4148;47.974;7.824;2023-06-22T10:34:15;31.30;99.90
8214;DHT22;4148;47.974;7.824;2023-06-22T10:36:43;31.00;99.90
8214;DHT22;4148;47.974;7.824;2023-06-22T10:39:15;30.80;99.90
8214;DHT22;4148;47.974;7.824;2023-06-22T10:41:43;30.60;99.90
8214;DHT22;4148;47.974;7.824;2023-06-22T10:44:12;30.40;99.90
8214;DHT22;4148;47.974;7.824;2023-06-22T10:46:40;30.20;99.90
8214;DHT22;4148;47.974;7.824;2023-06-22T10:49:08;30.00;99.90
8214;DHT22;4148;47.974;7.824;2023-06-22T10:51:35;30.10;99.90
8214;DHT22;4148;47.974;7.824;2023-06-22T10:54:03;30.00;99.90
8214;DHT22;4148;47.974;7.824;2023-06-22T10:56:33;30.00;99.90
8214;DHT22;4148;47.974;7.824;2023-06-22T10:59:01;30.00;99.90
8214;DHT22;4148;47.974;7.824;2023-06-22T11:01:29;30.10;99.90
8214;DHT22;4148;47.974;7.824;2023-06-22T11:04:03;30.20;99.90
8214;DHT22;4148;47.974;7.824;2023-06-22T11:06:31;30.40;99.90
8214;DHT22;4148;47.974;7.824;2023-06-22T11:08:59;30.40;99.90
8214;DHT22;4148;47.974;7.824;2023-06-22T11:11:30;30.50;99.90
8214;DHT22;4148;47.974;7.824;2023-06-22T11:13:59;30.50;99.90
8214;DHT22;4148;47.974;7.824;2023-06-22T11:16:27;30.40;99.90
8214;DHT22;4148;47.974;7.824;2023-06-22T11:18:55;30.40;99.90
8214;DHT22;4148;47.974;7.824;2023-06-22T11:21:23;30.20;99.90
8214;DHT22;4148;47.974;7.824;2023-06-22T11:23:51;30.30;99.90
8214;DHT22;4148;47.974;7.824;2023-06-22T11:26:18;30.30;99.90
8214;DHT22;4148;47.974;7.824;2023-06-22T11:28:47;30.30;99.90
8214;DHT22;4148;47.974;7.824;2023-06-22T11:31:17;30.40;99.90
8214;DHT22;4148;47.974;7.824;2023-06-22T11:33:52;30.50;99.90
8214;DHT22;4148;47.974;7.824;2023-06-22T11:36:20;30.60;99.90
8214;DHT22;4148;47.974;7.824;2023-06-22T11:38:48;30.70;99.90
8214;DHT22;4148;47.974;7.824;2023-06-22T11:41:16;30.60;99.90
8214;DHT22;4148;47.974;7.824;2023-06-22T11:43:44;30.60;99.90
8214;DHT22;4148;47.974;7.824;2023-06-22T11:46:12;30.50;99.90
8214;DHT22;4148;47.974;7.824;2023-06-22T11:48:41;30.40;99.90
8214;DHT22;4148;47.974;7.824;2023-06-22T11:51:09;30.20;99.90
8214;DHT22;4148;47.974;7.824;2023-06-22T11:53:37;30.00;99.90
8214;DHT22;4148;47.974;7.824;2023-06-22T11:56:05;29.80;99.90
8214;DHT22;4148;47.974;7.824;2023-06-22T11:58:35;29.70;99.90
8214;DHT22;4148;47.974;7.824;2023-06-22T12:01:03;29.60;99.90
8214;DHT22;4148;47.974;7.824;2023-06-22T12:03:31;29.50;99.90
8214;DHT22;4148;47.974;7.824;2023-06-22T12:06:00;29.40;99.90
8214;DHT22;4148;47.974;7.824;2023-06-22T12:08:28;29.30;99.90
8214;DHT22;4148;47.974;7.824;2023-06-22T12:10:56;29.20;99.90
8214;DHT22;4148;47.974;7.824;2023-06-22T12:13:24;29.20;99.90
8214;DHT22;4148;47.974;7.824;2023-06-22T12:15:52;29.10;99.90
8214;DHT22;4148;47.974;7.824;2023-06-22T12:18:20;29.10;99.90
8214;DHT22;4148;47.974;7.824;2023-06-22T12:20:48;29.10;99.90
8214;DHT22;4148;47.974;7.824;2023-06-22T12:23:17;29.20;99.90
8214;DHT22;4148;47.974;7.824;2023-06-22T12:25:46;29.20;99.90
8214;DHT22;4148;47.974;7.824;2023-06-22T12:28:14;29.00;99.90
8214;DHT22;4148;47.974;7.824;2023-06-22T12:30:42;29.00;99.90
8214;DHT22;4148;47.974;7.824;2023-06-22T12:33:10;28.80;99.90
8214;DHT22;4148;47.974;7.824;2023-06-22T12:35:38;28.60;99.90
8214;DHT22;4148;47.974;7.824;2023-06-22T12:38:06;28.40;99.90
8214;DHT22;4148;47.974;7.824;2023-06-22T12:40:36;28.50;99.90
8214;DHT22;4148;47.974;7.824;2023-06-22T12:43:04;28.50;99.90
8214;DHT22;4148;47.974;7.824;2023-06-22T12:45:32;28.50;99.90
8214;DHT22;4148;47.974;7.824;2023-06-22T12:48:00;28.70;99.90
8214;DHT22;4148;47.974;7.824;2023-06-22T12:50:28;28.70;99.90
8214;DHT22;4148;47.974;7.824;2023-06-22T12:52:56;28.50;99.90
8214;DHT22;4148;47.974;7.824;2023-06-22T12:55:24;28.60;99.90
8214;DHT22;4148;47.974;7.824;2023-06-22T12:57:53;28.50;99.90
8214;DHT22;4148;47.974;7.824;2023-06-22T13:00:21;28.40;99.90
8214;DHT22;4148;47.974;7.824;2023-06-22T13:02:49;28.50;99.90
8214;DHT22;4148;47.974;7.824;2023-06-22T13:05:20;28.50;99.90
8214;DHT22;4148;47.974;7.824;2023-06-22T13:07:48;28.50;99.90
8214;DHT22;4148;47.974;7.824;2023-06-22T13:10:16;28.40;99.90
8214;DHT22;4148;47.974;7.824;2023-06-22T13:12:44;28.30;99.90
8214;DHT22;4148;47.974;7.824;2023-06-22T13:15:13;28.30;99.90
8214;DHT22;4148;47.974;7.824;2023-06-22T13:17:41;28.30;99.90
8214;DHT22;4148;47.974;7.824;2023-06-22T13:20:10;28.20;99.90
8214;DHT22;4148;47.974;7.824;2023-06-22T13:22:38;28.10;99.90
8214;DHT22;4148;47.974;7.824;2023-06-22T13:25:09;28.00;99.90
8214;DHT22;4148;47.974;7.824;2023-06-22T13:27:39;27.90;99.90
8214;DHT22;4148;47.974;7.824;2023-06-22T13:30:08;28.00;99.90
8214;DHT22;4148;47.974;7.824;2023-06-22T13:32:41;27.90;99.90
8214;DHT22;4148;47.974;7.824;2023-06-22T13:35:10;27.80;99.90
8214;DHT22;4148;47.974;7.824;2023-06-22T13:37:38;27.80;99.90
8214;DHT22;4148;47.974;7.824;2023-06-22T13:40:07;27.90;99.90
8214;DHT22;4148;47.974;7.824;2023-06-22T13:42:35;27.80;99.90
8214;DHT22;4148;47.974;7.824;2023-06-22T13:45:04;27.80;99.90
8214;DHT22;4148;47.974;7.824;2023-06-22T13:47:32;27.60;99.90
8214;DHT22;4148;47.974;7.824;2023-06-22T13:50:01;27.50;99.90
8214;DHT22;4148;47.974;7.824;2023-06-22T13:52:29;27.40;99.90
8214;DHT22;4148;47.974;7.824;2023-06-22T13:54:57;27.30;99.90
8214;DHT22;4148;47.974;7.824;2023-06-22T13:57:25;27.30;99.90
8214;DHT22;4148;47.974;7.824;2023-06-22T13:59:53;27.00;99.90
8214;DHT22;4148;47.974;7.824;2023-06-22T14:02:21;26.90;99.90
8214;DHT22;4148;47.974;7.824;2023-06-22T14:04:49;26.70;99.90
8214;DHT22;4148;47.974;7.824;2023-06-22T14:07:18;26.50;99.90
8214;DHT22;4148;47.974;7.824;2023-06-22T14:09:47;26.50;99.90
8214;DHT22;4148;47.974;7.824;2023-06-22T14:12:16;26.30;99.90
8214;DHT22;4148;47.974;7.824;2023-06-22T14:14:45;26.30;99.90
8214;DHT22;4148;47.974;7.824;2023-06-22T14:17:13;26.30;99.90
8214;DHT22;4148;47.974;7.824;2023-06-22T14:19:41;26.20;99.90
8214;DHT22;4148;47.974;7.824;2023-06-22T14:22:09;26.20;99.90
8214;DHT22;4148;47.974;7.824;2023-06-22T14:24:38;26.40;99.90
8214;DHT22;4148;47.974;7.824;2023-06-22T14:27:06;26.50;99.90
8214;DHT22;4148;47.974;7.824;2023-06-22T14:29:35;26.60;99.90
8214;DHT22;4148;47.974;7.824;2023-06-22T14:32:03;26.70;99.90
8214;DHT22;4148;47.974;7.824;2023-06-22T14:34:33;26.80;99.90
8214;DHT22;4148;47.974;7.824;2023-06-22T14:37:03;26.80;99.90
8214;DHT22;4148;47.974;7.824;2023-06-22T14:39:30;26.80;99.90
8214;DHT22;4148;47.974;7.824;2023-06-22T14:42:00;26.80;99.90
8214;DHT22;4148;47.974;7.824;2023-06-22T14:44:28;26.80;99.90
8214;DHT22;4148;47.974;7.824;2023-06-22T14:46:56;26.80;99.90
8214;DHT22;4148;47.974;7.824;2023-06-22T14:49:24;27.00;99.90
8214;DHT22;4148;47.974;7.824;2023-06-22T14:51:52;27.20;99.90
8214;DHT22;4148;47.974;7.824;2023-06-22T14:54:20;27.20;99.90
8214;DHT22;4148;47.974;7.824;2023-06-22T14:56:48;27.20;99.90
8214;DHT22;4148;47.974;7.824;2023-06-22T14:59:17;27.30;99.90
8214;DHT22;4148;47.974;7.824;2023-06-22T15:01:45;27.20;99.90
8214;DHT22;4148;47.974;7.824;2023-06-22T15:04:14;27.10;99.90
8214;DHT22;4148;47.974;7.824;2023-06-22T15:06:41;27.20;99.90
8214;DHT22;4148;47.974;7.824;2023-06-22T15:09:11;27.10;99.90
8214;DHT22;4148;47.974;7.824;2023-06-22T15:11:39;27.10;99.90
8214;DHT22;4148;47.974;7.824;2023-06-22T15:14:06;27.20;99.90
8214;DHT22;4148;47.974;7.824;2023-06-22T15:16:38;27.20;99.90
8214;DHT22;4148;47.974;7.824;2023-06-22T15:19:06;27.30;99.90
8214;DHT22;4148;47.974;7.824;2023-06-22T15:21:34;27.30;99.90
8214;DHT22;4148;47.974;7.824;2023-06-22T15:24:02;27.40;99.90
8214;DHT22;4148;47.974;7.824;2023-06-22T15:26:30;27.60;99.90
8214;DHT22;4148;47.974;7.824;2023-06-22T15:28:58;27.60;99.90
8214;DHT22;4148;47.974;7.824;2023-06-22T15:31:26;27.70;99.90
8214;DHT22;4148;47.974;7.824;2023-06-22T15:33:56;27.80;99.90
8214;DHT22;4148;47.974;7.824;2023-06-22T15:36:24;27.90;99.90
8214;DHT22;4148;47.974;7.824;2023-06-22T15:38:51;27.90;99.90
8214;DHT22;4148;47.974;7.824;2023-06-22T15:41:20;27.80;99.90
8214;DHT22;4148;47.974;7.824;2023-06-22T15:43:47;27.80;99.90
8214;DHT22;4148;47.974;7.824;2023-06-22T15:46:15;27.70;99.90
8214;DHT22;4148;47.974;7.824;2023-06-22T15:48:44;27.80;99.90
8214;DHT22;4148;47.974;7.824;2023-06-22T15:51:16;27.70;99.90
8214;DHT22;4148;47.974;7.824;2023-06-22T15:53:44;27.70;99.90
8214;DHT22;4148;47.974;7.824;2023-06-22T15:56:12;27.60;99.90
8214;DHT22;4148;47.974;7.824;2023-06-22T15:58:40;27.60;99.90
8214;DHT22;4148;47.974;7.824;2023-06-22T16:01:08;27.50;99.90
8214;DHT22;4148;47.974;7.824;2023-06-22T16:03:36;27.50;99.90
8214;DHT22;4148;47.974;7.824;2023-06-22T16:06:05;27.50;99.90
8214;DHT22;4148;47.974;7.824;2023-06-22T16:08:35;27.40;99.90
8214;DHT22;4148;47.974;7.824;2023-06-22T16:11:02;27.40;99.90